Egham, United Kingdom
Current Conditions -  °F | °C
As of 3:20 PM on Friday 31 Oct 2014 (Local Time) from EGLL Reporting Station
Clear Clear  
Wind Chill: 68°   Ceiling: Unl
Heat Index: 68°   Visibility: 6mi
Dew Point: 54°   Wind: 14mph
Humidity: 60%   Direction: 180°S
Pressure: 29.97"   Gusts: NA
Location:  51.43°N, 0.55°W
Report Text: EGLL 311520Z 18012KT 120V210 CAVOK 20/12 Q1015
Loading
Personal Weather Stations






























Interactive Weather Map New forecast layout! Learn more

10-Day Weather Forecast

Advertisements
Track Severe Weather on mobile